Latest Weather Observations for Moss Vale

IDN60801

Issued at 2:32 pm EST Tuesday 23 May 2017 (issued every 30 minutes, with the page automatically refreshed every 10 minutes)

About weather observations | Map of weather stations | Latest weather observations for NSW | Other Formats
Station Details ID: 068239 Name: MOSS VALE AWS Lat: -34.53 Lon: 150.42 Height: 678.4 m
Data from the previous 72 hours. | See also: Recent months at Moss Vale
Date/Time
EST
Temp
°C
App
Temp
°C
Dew
Point
°C
Rel
Hum
%
Delta-T
°C
Wind Press
QNH
hPa
Press
MSL
hPa
Rain since
9am
mm
Dir  Spd
km/h
Gust
km/h
Spd
kts
Gust
kts
23/02:30pm 17.1 12.4 6.0 48 5.6 NW 20 30 11 16 1018.6 1018.4 0.0
23/02:00pm 17.9 15.0 9.8 59 4.4 WNW 15 20 8 11 1018.7 1018.5 0.0
23/01:30pm 17.3 14.5 10.0 62 4.0 W 15 22 8 12 1018.9 1018.7 0.0
23/01:00pm 17.2 14.5 10.3 64 3.8 W 15 20 8 11 1019.3 1019.2 0.0
23/12:30pm 16.7 12.5 8.4 58 4.4 W 20 28 11 15 1019.9 1019.7 0.0
23/12:00pm 16.6 12.9 8.1 57 4.5 WNW 17 28 9 15 1020.6 1020.5 0.0
23/11:30am 16.5 12.8 9.4 63 3.8 WNW 19 24 10 13 1020.9 1020.8 0.0
23/11:00am 16.4 13.8 9.3 63 3.8 NW 13 19 7 10 1021.5 1021.3 0.0
23/10:30am 16.0 13.2 10.1 68 3.2 NNW 15 20 8 11 1021.7 1021.6 0.0
23/10:00am 15.4 11.9 10.2 71 2.8 N 19 22 10 12 1022.0 1021.9 0.0
23/09:30am 14.8 12.4 10.2 74 2.5 NNW 13 17 7 9 1022.3 1022.2 0.0
23/09:00am 14.3 14.2 13.2 93 0.6 NW 6 13 3 7 1022.7 1022.5 0.2
23/08:30am 11.5 11.6 11.5 100 0.0 WNW 2 7 1 4 1023.0 1022.9 0.2
23/08:27am 11.4 - - - - W 4 9 2 5 1023.0 1022.9 0.2
23/08:00am 10.3 9.1 10.2 99 0.1 W 7 9 4 5 1022.8 1022.6 0.2
23/07:47am 10.0 8.3 9.9 99 0.1 NW 9 13 5 7 1022.8 1022.6 0.2
23/07:37am 10.7 - - - - NNW 11 13 6 7 1022.7 1022.5 0.2
23/07:30am 10.5 - - - - NNW 11 13 6 7 1022.7 1022.5 0.2
23/07:00am 10.1 - - - - NW 11 17 6 9 1022.4 1022.3 0.2
23/06:30am 9.9 - - - - N 15 17 8 9 1022.1 1022.0 0.2
23/06:00am 10.0 - - - - N 17 19 9 10 1021.9 1021.8 0.2
23/05:30am 10.6 - - - - N 13 13 7 7 1021.7 1021.6 0.2
23/05:16am 10.5 - - - - N 13 17 7 9 1021.7 1021.6 0.2
23/05:00am 11.3 - - - - N 15 20 8 11 1021.6 1021.4 0.2
23/04:30am 11.8 - - - - N 17 24 9 13 1021.6 1021.4 0.2
23/04:10am 11.5 - - - - N 15 20 8 11 1021.7 1021.6 0.0
23/04:00am 10.6 - - - - N 13 17 7 9 1021.8 1021.7 0.0
23/03:30am 11.1 - - - - N 9 15 5 8 1022.0 1021.9 0.0
23/03:14am 10.9 - - - - N 9 13 5 7 1022.1 1022.0 0.0
23/03:10am 11.1 - - - - NNW 9 13 5 7 1022.2 1022.1 0.0
23/03:00am 11.2 - - - - NNW 11 19 6 10 1022.3 1022.2 0.0
23/02:48am 10.9 - - - - N 7 9 4 5 1022.4 1022.3 0.0
23/02:30am 10.7 - - - - N 6 9 3 5 1022.6 1022.4 0.0
23/02:09am 11.1 - - - - NNE 9 11 5 6 1022.7 1022.5 0.0
23/02:08am 10.9 - - - - NNE 9 13 5 7 1022.7 1022.5 0.0
23/02:00am 10.9 - - - - NNE 9 13 5 7 1022.8 1022.6 0.0
23/01:30am 11.4 10.5 11.4 100 0.0 NNE 7 13 4 7 1023.0 1022.9 0.0
23/01:00am 11.7 10.1 11.7 100 0.0 N 11 19 6 10 1023.3 1023.2 0.0
23/12:30am 11.8 - - - - N 11 15 6 8 1023.4 1023.3 0.0
23/12:00am 11.7 9.8 11.7 100 0.0 NNE 13 19 7 10 1023.6 1023.5 0.0
 
Date/Time
EST
Temp
°C
App
Temp
°C
Dew
Point
°C
Rel
Hum
%
Delta-T
°C
Wind Press
QNH
hPa
Press
MSL
hPa
Rain since
9am
mm
Dir  Spd
km/h
Gust
km/h
Spd
kts
Gust
kts
22/11:30pm 12.0 9.0 12.0 100 0.0 N 19 24 10 13 1023.7 1023.6 0.0
22/11:00pm 11.8 - - - - N 19 24 10 13 1023.8 1023.7 0.0
22/10:59pm 11.9 - - - - N 20 28 11 15 1023.8 1023.7 0.0
22/10:30pm 11.9 - - - - NNE 22 28 12 15 1023.7 1023.6 0.0
22/10:00pm 12.1 - - - - NNE 22 28 12 15 1023.8 1023.7 0.0
22/09:30pm 11.9 - - - - NNE 22 28 12 15 1023.8 1023.7 0.0
22/09:00pm 12.2 - - - - NNE 24 32 13 17 1023.6 1023.5 0.0
22/08:30pm 11.9 - - - - NNE 19 24 10 13 1023.7 1023.6 0.0
22/08:00pm 11.9 - - - - NNE 17 20 9 11 1023.6 1023.5 0.0
22/07:51pm 11.8 - - - - NNE 17 24 9 13 1023.6 1023.5 0.0
22/07:30pm 12.2 - - - - NE 19 22 10 12 1023.5 1023.4 0.0
22/07:00pm 12.3 - - - - NE 20 26 11 14 1023.4 1023.3 0.0
22/06:44pm 12.4 - - - - NE 20 24 11 13 1023.4 1023.3 0.0
22/06:30pm 12.2 - - - - NNE 20 26 11 14 1023.3 1023.2 0.0
22/06:00pm 11.8 9.4 11.5 98 0.2 NNE 15 17 8 9 1023.3 1023.2 0.0
22/05:30pm 12.4 9.9 9.8 84 1.4 NNE 13 17 7 9 1022.9 1022.7 0.0
22/05:00pm 12.4 9.4 9.2 81 1.7 N 15 20 8 11 1022.9 1022.7 0.0
22/04:30pm 13.5 10.2 9.4 76 2.2 NNE 17 20 9 11 1022.7 1022.5 0.0
22/04:00pm 14.6 11.4 9.8 73 2.6 NNE 17 20 9 11 1022.4 1022.3 0.0
22/03:30pm 15.2 11.6 9.8 70 2.9 NE 19 22 10 12 1022.6 1022.4 0.0
22/03:00pm 15.2 12.0 9.8 70 2.9 NE 17 24 9 13 1022.6 1022.4 0.0
22/02:30pm 15.9 12.2 9.3 65 3.5 NNE 19 22 10 12 1022.7 1022.5 0.0
22/02:00pm 16.3 13.2 10.2 67 3.3 N 17 20 9 11 1023.0 1022.9 0.0
22/01:30pm 15.2 11.5 9.6 69 3.0 NNE 19 24 10 13 1023.1 1023.0 0.0
22/01:00pm 15.3 11.9 9.0 66 3.3 NE 17 19 9 10 1023.2 1023.1 0.0
22/12:30pm 15.3 12.8 10.9 75 2.4 NNE 15 20 8 11 1023.3 1023.2 0.0
22/12:00pm 15.1 11.6 10.3 73 2.6 NNE 19 24 10 13 1023.7 1023.6 0.0
22/11:30am 15.3 12.4 11.1 76 2.3 NNE 17 22 9 12 1024.3 1024.2 0.0
22/11:11am 14.8 12.4 11.4 80 1.9 N 15 19 8 10 1024.6 1024.5 0.0
22/11:00am 14.6 11.9 11.7 83 1.6 N 17 22 9 12 1024.7 1024.6 0.0
22/10:34am 13.4 12.2 12.8 96 0.3 NNE 11 20 6 11 1024.9 1024.8 0.0
22/10:30am 13.4 13.3 13.4 100 0.0 NNW 6 17 3 9 1025.0 1024.9 0.0
22/10:00am 11.8 - - - - NNW 4 6 2 3 1025.3 1025.2 0.0
22/09:30am 10.3 - - - - NNE 2 7 1 4 1025.3 1025.2 0.0
22/09:00am 8.8 - - - - CALM 0 0 0 0 1025.4 1025.3 0.4
22/08:30am 7.2 - - - - WSW 2 6 1 3 1025.2 1025.1 0.4
22/08:00am 6.1 - - - - CALM 0 0 0 0 1025.1 1025.0 0.4
22/07:30am 5.6 - - - - CALM 0 0 0 0 1024.9 1024.8 0.4
22/07:00am 5.5 - - - - CALM 0 0 0 0 1024.5 1024.4 0.4
22/06:30am 5.7 - - - - CALM 0 0 0 0 1024.3 1024.2 0.4
22/06:00am 5.9 - - - - CALM 0 0 0 0 1023.9 1023.8 0.4
22/05:30am 6.0 - - - - CALM 0 0 0 0 1023.6 1023.5 0.4
22/05:00am 6.6 - - - - N 2 6 1 3 1023.5 1023.4 0.4
22/04:30am 6.8 - - - - CALM 0 0 0 0 1023.3 1023.2 0.4
22/04:00am 7.2 - - - - CALM 0 0 0 0 1023.2 1023.1 0.2
22/03:30am 7.5 - - - - CALM 0 0 0 0 1023.2 1023.1 0.2
22/03:00am 7.7 - - - - W 2 6 1 3 1023.3 1023.2 0.2
22/02:30am 7.9 - - - - WNW 6 7 3 4 1023.5 1023.4 0.2
22/02:00am 7.8 - - - - WSW 6 7 3 4 1023.4 1023.3 0.2
22/01:30am 8.0 - - - - CALM 0 0 0 0 1023.6 1023.5 0.2
22/01:00am 8.5 - - - - CALM 0 0 0 0 1023.8 1023.7 0.2
22/12:30am 8.5 - - - - CALM 0 0 0 0 1023.8 1023.7 0.2
22/12:00am 8.8 - - - - CALM 0 0 0 0 1023.9 1023.8 0.2
 
Date/Time
EST
Temp
°C
App
Temp
°C
Dew
Point
°C
Rel
Hum
%
Delta-T
°C
Wind Press
QNH
hPa
Press
MSL
hPa
Rain since
9am
mm
Dir  Spd
km/h
Gust
km/h
Spd
kts
Gust
kts
21/11:30pm 8.9 - - - - CALM 0 0 0 0 1023.9 1023.8 0.2
21/11:00pm 8.7 - - - - CALM 0 4 0 2 1023.8 1023.7 0.2
21/10:30pm 8.5 - - - - CALM 0 0 0 0 1023.7 1023.6 0.2
21/10:00pm 8.3 - - - - CALM 0 0 0 0 1023.8 1023.7 0.2
21/09:30pm 8.6 - - - - CALM 0 0 0 0 1023.9 1023.8 0.2
21/09:00pm 9.0 - - - - SSW 7 9 4 5 1023.8 1023.7 0.0
21/08:30pm 9.4 - - - - NNE 7 9 4 5 1023.4 1023.3 0.0
21/08:00pm 9.3 - - - - N 9 13 5 7 1023.2 1023.1 0.0
21/07:42pm 10.0 - - - - NNE 7 9 4 5 1023.1 1023.0 0.0
21/07:30pm 10.0 - - - - ENE 6 6 3 3 1023.0 1022.9 0.0
21/07:00pm 10.6 - - - - E 9 13 5 7 1022.7 1022.5 0.0
21/06:36pm 10.5 - - - - E 7 9 4 5 1022.4 1022.3 0.0
21/06:31pm 10.8 - - - - E 7 9 4 5 1022.3 1022.2 0.0
21/06:30pm 10.8 - - - - E 7 9 4 5 1022.3 1022.2 0.0
21/06:00pm 11.3 10.0 11.2 99 0.1 ENE 9 13 5 7 1022.1 1022.0 0.0
21/05:30pm 11.4 9.7 11.2 99 0.1 SE 11 13 6 7 1021.7 1021.6 0.0
21/05:00pm 12.2 10.1 9.6 84 1.4 SE 11 13 6 7 1021.5 1021.3 0.0
21/04:30pm 13.2 10.2 9.1 76 2.2 SE 15 19 8 10 1021.2 1021.0 0.0
21/04:00pm 15.9 14.5 3.4 43 5.9 CALM 0 0 0 0 1020.9 1020.8 0.0
21/03:30pm 17.1 15.1 4.4 43 6.2 W 4 9 2 5 1020.7 1020.6 0.0
21/03:00pm 16.9 14.2 2.9 39 6.6 NNW 6 11 3 6 1020.5 1020.4 0.0
21/02:30pm 16.8 14.3 3.5 41 6.4 W 6 19 3 10 1020.4 1020.3 0.0
21/02:00pm 16.9 14.7 6.1 49 5.4 W 7 13 4 7 1020.3 1020.1 0.0
21/01:30pm 16.0 13.7 5.6 50 5.2 SSW 7 11 4 6 1020.3 1020.1 0.0
21/01:00pm 16.0 13.0 4.1 45 5.7 SW 9 13 5 7 1020.4 1020.3 0.0
21/12:30pm 16.3 13.8 6.4 52 5.0 WNW 9 13 5 7 1020.6 1020.5 0.0
21/12:00pm 15.7 13.6 8.4 62 3.8 WNW 9 13 5 7 1021.2 1021.0 0.0
21/11:30am 14.7 12.5 9.5 71 2.8 WSW 11 17 6 9 1021.6 1021.4 0.0
21/11:00am 14.2 12.1 9.6 74 2.4 W 11 15 6 8 1022.0 1021.9 0.0
21/10:30am 13.2 10.9 8.9 75 2.2 W 11 15 6 8 1022.3 1022.2 0.0
21/10:00am 12.0 9.4 9.4 84 1.4 WSW 13 17 7 9 1022.4 1022.3 0.0
21/09:30am 10.9 9.1 10.7 99 0.1 WSW 11 15 6 8 1022.4 1022.3 0.0
21/09:00am 9.2 7.6 8.6 96 0.3 W 7 9 4 5 1022.3 1022.2 0.2
21/08:30am 8.1 - - - - CALM 0 0 0 0 1022.1 1022.0 0.2
21/08:22am 7.4 - - - - CALM 0 6 0 3 1022.0 1021.9 0.2
21/08:00am 5.1 - - - - CALM 0 6 0 3 1021.8 1021.7 0.2
21/07:30am 3.6 - - - - WSW 6 7 3 4 1021.4 1021.2 0.2
21/07:00am 2.3 - - - - CALM 0 0 0 0 1020.9 1020.8 0.2
21/06:48am 2.4 - - - - WSW 2 11 1 6 1020.8 1020.7 0.2
21/06:30am 3.1 - - - - SW 6 7 3 4 1020.5 1020.4 0.2
21/06:06am 5.1 - - - - CALM 0 7 0 4 1020.2 1020.0 0.2
21/06:00am 4.7 - - - - CALM 0 0 0 0 1020.2 1020.0 0.2
21/05:50am 4.8 - - - - CALM 0 0 0 0 1020.0 1019.8 0.2
21/05:41am 5.0 - - - - CALM 0 0 0 0 1020.1 1019.9 0.2
21/05:30am 3.4 - - - - E 4 6 2 3 1020.1 1019.9 0.2
21/05:28am 3.2 - - - - E 6 7 3 4 1020.1 1019.9 0.2
21/05:00am 4.0 - - - - W 7 11 4 6 1019.6 1019.4 0.2
21/04:30am 5.6 - - - - WNW 4 7 2 4 1019.3 1019.2 0.2
21/04:00am 4.5 - - - - WSW 6 7 3 4 1019.3 1019.2 0.2
21/03:52am 5.5 - - - - WSW 7 9 4 5 1019.2 1019.1 0.2
21/03:30am 5.8 - - - - W 9 11 5 6 1019.5 1019.3 0.2
21/03:16am 6.0 - - - - W 11 13 6 7 1019.5 1019.3 0.0
21/03:00am 5.3 3.0 4.9 97 0.2 WNW 6 7 3 4 1019.7 1019.5 0.0
21/02:38am 4.9 - - - - W 9 13 5 7 1019.5 1019.3 0.0
21/02:30am 6.7 - - - - W 13 15 7 8 1019.5 1019.3 0.0
21/02:13am 6.4 - - - - WSW 13 15 7 8 1019.5 1019.3 0.0
21/02:00am 6.2 - - - - W 13 15 7 8 1019.5 1019.3 0.0
21/01:32am 6.3 - - - - WNW 6 9 3 5 1019.8 1019.6 0.0
21/01:30am 6.5 - - - - WNW 4 9 2 5 1019.8 1019.6 0.0
21/01:25am 6.8 - - - - CALM 0 7 0 4 1019.9 1019.7 0.0
21/01:00am 5.7 - - - - CALM 0 0 0 0 1019.9 1019.7 0.0
21/12:52am 6.2 - - - - CALM 0 6 0 3 1019.8 1019.6 0.0
21/12:48am 6.5 - - - - SW 4 7 2 4 1019.8 1019.6 0.0
21/12:34am 7.0 - - - - WSW 6 7 3 4 1019.7 1019.5 0.0
21/12:30am 7.0 - - - - W 6 9 3 5 1019.7 1019.5 0.0
21/12:00am 7.2 - - - - WSW 2 6 1 3 1019.8 1019.6 0.0
 
Date/Time
EST
Temp
°C
App
Temp
°C
Dew
Point
°C
Rel
Hum
%
Delta-T
°C
Wind Press
QNH
hPa
Press
MSL
hPa
Rain since
9am
mm
Dir  Spd
km/h
Gust
km/h
Spd
kts
Gust
kts
20/11:58pm 7.3 - - - - WSW 4 6 2 3 1019.8 1019.6 0.0
20/11:30pm 7.2 4.8 7.2 100 0.0 W 9 11 5 6 1019.8 1019.6 0.0
20/11:28pm 7.5 5.6 7.5 100 0.0 W 7 9 4 5 1019.8 1019.6 0.0
20/11:25pm 7.8 6.0 7.8 100 0.0 WNW 7 9 4 5 1019.9 1019.7 0.0
20/11:04pm 7.6 5.7 6.5 93 0.5 WNW 6 7 3 4 1019.9 1019.7 0.0
20/11:00pm 8.8 7.2 8.0 95 0.4 WNW 6 7 3 4 1019.9 1019.7 0.0
20/10:30pm 8.8 7.3 8.5 98 0.2 NNW 6 7 3 4 1019.9 1019.7 0.0
20/10:00pm 8.1 6.3 7.8 98 0.1 N 7 9 4 5 1020.0 1019.8 0.0
20/09:30pm 8.7 7.2 8.6 99 0.1 NW 6 7 3 4 1020.0 1019.8 0.0
20/09:00pm 9.4 9.2 8.9 97 0.3 CALM 0 0 0 0 1019.7 1019.5 0.0
20/08:30pm 8.2 6.6 6.3 88 0.9 SW 4 9 2 5 1019.6 1019.4 0.0
20/08:00pm 10.0 7.0 7.6 85 1.2 WSW 13 15 7 8 1019.7 1019.5 0.0
20/07:30pm 10.0 8.1 7.6 85 1.2 W 7 9 4 5 1019.6 1019.4 0.0
20/07:00pm 10.7 8.8 7.6 81 1.5 WNW 7 9 4 5 1019.3 1019.2 0.0
20/06:30pm 11.2 10.7 7.9 80 1.7 CALM 0 0 0 0 1018.9 1018.7 0.0
20/06:00pm 12.4 11.0 8.7 78 1.9 WSW 6 9 3 5 1018.6 1018.4 0.0
20/05:30pm 13.5 12.4 8.6 72 2.5 SSW 4 6 2 3 1018.3 1018.1 0.0
20/05:00pm 14.4 12.8 8.6 68 3.0 SW 7 11 4 6 1018.0 1017.8 0.0
20/04:30pm 15.5 13.5 8.7 64 3.6 SW 9 15 5 8 1017.6 1017.4 0.0
20/04:00pm 16.3 14.1 9.3 63 3.8 SW 11 17 6 9 1017.3 1017.1 0.0
20/03:30pm 16.7 14.2 9.6 63 3.8 WSW 13 19 7 10 1017.1 1016.9 0.0
20/03:00pm 16.5 13.9 9.4 63 3.8 WSW 13 20 7 11 1017.1 1016.9 0.0

Other Formats:

Comma delimited format used in spreadsheet applications
http://www.bom.gov.au/fwo/IDN60801/IDN60801.94746.axf

JavaScript Object Notation format (JSON) in row-major order
http://www.bom.gov.au/fwo/IDN60801/IDN60801.94746.json